Time;durP1;ratioP1;P1;durP2;ratioP2;P2;SDS_P1;SDS_P2;PMS_P1;PMS_P2;Temp;Humidity;BMP_temperature;BMP_pressure;BME280_temperature;BME280_humidity;BME280_pressure;Samples;Min_cycle;Max_cycle;Signal;HPM_P1;HPM_P2
2023/06/11 00:00:47;;;;;;;4.43;4.13;;;;;;;;;;5081715;28;20243;-89
2023/06/11 00:03:21;;;;;;;4.28;3.97;;;;;;;;;;5066358;28;20191;-89
2023/06/11 00:05:48;;;;;;;4.57;4.18;;;;;;;;;;5076084;28;20194;-89
2023/06/11 00:08:16;;;;;;;4.70;4.30;;;;;;;;;;5051762;28;20205;-89
2023/06/11 00:10:43;;;;;;;4.85;4.45;;;;;;;;;;5073946;28;20207;-89
2023/06/11 00:13:10;;;;;;;5.22;4.30;;;;;;;;;;5068053;28;20273;-89
2023/06/11 00:15:39;;;;;;;4.65;4.25;;;;;;;;;;5047339;28;20196;-89
2023/06/11 00:18:07;;;;;;;4.25;3.95;;;;;;;;;;5075194;28;20223;-89
2023/06/11 00:20:41;;;;;;;4.57;4.28;;;;;;;;;;5073684;28;20213;-90
2023/06/11 00:23:09;;;;;;;4.57;4.25;;;;;;;;;;5076527;28;20199;-89
2023/06/11 00:25:36;;;;;;;4.93;4.43;;;;;;;;;;5071643;28;20210;-89
2023/06/11 00:28:04;;;;;;;5.30;4.53;;;;;;;;;;5069239;28;20207;-89
2023/06/11 00:30:31;;;;;;;5.10;4.45;;;;;;;;;;5067826;28;20199;-90
2023/06/11 00:33:00;;;;;;;4.53;4.13;;;;;;;;;;5071571;28;20202;-90
2023/06/11 00:35:28;;;;;;;4.60;4.30;;;;;;;;;;5071463;28;20220;-90
2023/06/11 00:37:57;;;;;;;5.63;4.30;;;;;;;;;;5048161;28;20253;-90
2023/06/11 00:40:24;;;;;;;5.20;4.80;;;;;;;;;;5069450;28;20195;-89
2023/06/11 00:42:52;;;;;;;4.60;4.20;;;;;;;;;;5067369;28;20210;-90
2023/06/11 00:45:22;;;;;;;6.03;4.47;;;;;;;;;;5048660;28;20213;-90
2023/06/11 00:47:49;;;;;;;4.72;4.32;;;;;;;;;;5073106;28;20199;-89
2023/06/11 00:50:18;;;;;;;4.57;4.20;;;;;;;;;;5070998;28;20285;-89
2023/06/11 00:52:45;;;;;;;5.10;4.70;;;;;;;;;;5072861;28;20199;-89
2023/06/11 00:55:12;;;;;;;5.20;4.80;;;;;;;;;;5068747;28;20217;-89
2023/06/11 00:57:41;;;;;;;5.50;5.00;;;;;;;;;;5051511;28;20199;-89
2023/06/11 01:00:13;;;;;;;8.52;4.57;;;;;;;;;;5069205;28;20219;-90
2023/06/11 01:02:44;;;;;;;5.10;4.70;;;;;;;;;;5063890;28;20207;-90
2023/06/11 01:05:17;;;;;;;5.00;4.60;;;;;;;;;;5065654;28;20205;-89
2023/06/11 01:07:51;;;;;;;4.78;4.47;;;;;;;;;;5075375;28;20203;-90
2023/06/11 01:10:18;;;;;;;5.05;4.35;;;;;;;;;;5068019;28;20202;-89
2023/06/11 01:12:46;;;;;;;5.07;4.68;;;;;;;;;;5063886;28;20265;-89
2023/06/11 01:15:14;;;;;;;5.10;4.70;;;;;;;;;;5073056;28;20207;-90
2023/06/11 01:17:45;;;;;;;4.90;4.50;;;;;;;;;;5071458;28;20209;-89
2023/06/11 01:20:14;;;;;;;5.55;5.05;;;;;;;;;;5072236;28;20242;-90
2023/06/11 01:23:13;;;;;;;5.28;4.88;;;;;;;;;;5070470;28;20194;-89
2023/06/11 01:25:45;;;;;;;5.30;4.80;;;;;;;;;;5002974;28;20201;-89
2023/06/11 01:28:16;;;;;;;5.68;5.18;;;;;;;;;;5061452;28;20211;-89
2023/06/11 01:30:47;;;;;;;7.72;5.10;;;;;;;;;;5070794;28;20195;-89
2023/06/11 01:33:15;;;;;;;4.55;4.20;;;;;;;;;;5070805;28;20199;-89
2023/06/11 01:35:43;;;;;;;5.25;4.85;;;;;;;;;;5071722;28;20199;-89
2023/06/11 01:38:10;;;;;;;6.72;4.93;;;;;;;;;;5065803;28;20202;-90
2023/06/11 01:40:38;;;;;;;5.57;5.18;;;;;;;;;;5074320;28;20200;-89
2023/06/11 01:43:05;;;;;;;5.10;4.70;;;;;;;;;;5079986;28;20260;-89
2023/06/11 01:45:36;;;;;;;6.55;5.25;;;;;;;;;;5069735;28;20207;-89
2023/06/11 01:48:04;;;;;;;6.15;5.25;;;;;;;;;;5072454;28;20203;-89
2023/06/11 01:50:33;;;;;;;5.72;5.03;;;;;;;;;;5073716;28;20206;-89
2023/06/11 01:53:00;;;;;;;5.53;5.13;;;;;;;;;;5072778;28;20298;-89
2023/06/11 01:55:27;;;;;;;5.72;5.32;;;;;;;;;;5077005;28;20188;-89
2023/06/11 01:57:55;;;;;;;5.28;4.88;;;;;;;;;;5074753;28;20195;-89
2023/06/11 02:00:22;;;;;;;5.28;4.88;;;;;;;;;;5080385;28;20324;-90
2023/06/11 02:02:51;;;;;;;5.53;4.97;;;;;;;;;;5073192;28;20207;-89
2023/06/11 02:05:18;;;;;;;5.65;5.25;;;;;;;;;;5058708;28;20199;-89
2023/06/11 02:07:46;;;;;;;5.88;5.38;;;;;;;;;;5071603;28;20207;-90
2023/06/11 02:10:14;;;;;;;5.47;5.07;;;;;;;;;;5067410;28;20211;-89
2023/06/11 02:12:41;;;;;;;5.53;5.03;;;;;;;;;;5079106;28;20233;-89
2023/06/11 02:15:09;;;;;;;5.47;5.00;;;;;;;;;;5075662;28;20215;-89
2023/06/11 02:17:36;;;;;;;5.55;5.15;;;;;;;;;;5052342;28;20209;-90
2023/06/11 02:20:06;;;;;;;4.88;4.55;;;;;;;;;;5068443;28;20243;-89
2023/06/11 02:22:34;;;;;;;5.68;5.15;;;;;;;;;;5074456;28;20232;-90
2023/06/11 02:25:02;;;;;;;6.00;5.43;;;;;;;;;;5050060;28;20206;-89
2023/06/11 02:27:29;;;;;;;5.47;5.00;;;;;;;;;;5067364;28;20207;-89
2023/06/11 02:29:57;;;;;;;5.70;5.30;;;;;;;;;;5053152;28;20211;-89
2023/06/11 02:32:25;;;;;;;6.28;5.68;;;;;;;;;;5068793;28;20207;-89
2023/06/11 02:34:52;;;;;;;5.75;5.25;;;;;;;;;;5069200;28;20207;-89
2023/06/11 02:37:21;;;;;;;5.85;5.35;;;;;;;;;;5069877;28;20256;-89
2023/06/11 02:39:48;;;;;;;6.47;5.82;;;;;;;;;;5068807;28;20312;-89
2023/06/11 02:42:15;;;;;;;5.88;5.38;;;;;;;;;;5066620;28;20203;-90
2023/06/11 02:44:43;;;;;;;6.25;5.75;;;;;;;;;;5068990;28;20229;-89
2023/06/11 02:47:10;;;;;;;5.88;5.15;;;;;;;;;;5069653;28;20226;-89
2023/06/11 02:49:38;;;;;;;5.72;5.32;;;;;;;;;;5069882;28;20218;-89
2023/06/11 02:52:06;;;;;;;5.70;5.20;;;;;;;;;;5070314;28;20203;-89
2023/06/11 02:54:35;;;;;;;6.25;5.20;;;;;;;;;;5070173;28;20203;-89
2023/06/11 02:57:02;;;;;;;6.10;5.60;;;;;;;;;;5066213;28;20214;-89
2023/06/11 02:59:29;;;;;;;6.60;5.97;;;;;;;;;;5068940;28;20222;-89
2023/06/11 03:01:57;;;;;;;5.95;5.32;;;;;;;;;;5063037;28;20199;-89
2023/06/11 03:04:24;;;;;;;6.20;5.70;;;;;;;;;;5047023;28;20214;-89
2023/06/11 03:06:52;;;;;;;5.50;5.10;;;;;;;;;;5067359;28;20211;-90
2023/06/11 03:09:21;;;;;;;5.70;5.30;;;;;;;;;;5066494;28;20211;-90
2023/06/11 03:11:49;;;;;;;5.97;5.47;;;;;;;;;;5062954;28;20211;-89
2023/06/11 03:14:17;;;;;;;5.90;5.40;;;;;;;;;;5067713;28;20203;-89
2023/06/11 03:16:44;;;;;;;5.80;5.30;;;;;;;;;;5050931;28;20203;-89
2023/06/11 03:19:11;;;;;;;5.75;5.32;;;;;;;;;;5066850;28;20235;-88
2023/06/11 03:21:39;;;;;;;6.15;5.68;;;;;;;;;;5078294;28;20202;-89
2023/06/11 03:24:06;;;;;;;5.38;4.97;;;;;;;;;;5072500;28;20236;-89
2023/06/11 03:26:34;;;;;;;5.80;5.30;;;;;;;;;;5067702;28;20194;-89
2023/06/11 03:29:03;;;;;;;5.90;5.50;;;;;;;;;;5052444;28;20211;-89
2023/06/11 03:31:30;;;;;;;6.18;5.70;;;;;;;;;;5066324;28;20206;-89
2023/06/11 03:33:58;;;;;;;5.55;5.15;;;;;;;;;;5062093;28;20216;-89
2023/06/11 03:36:25;;;;;;;5.85;5.40;;;;;;;;;;5067693;28;20211;-89
2023/06/11 03:38:52;;;;;;;5.60;5.20;;;;;;;;;;5057991;28;20207;-89
2023/06/11 03:41:20;;;;;;;5.90;5.40;;;;;;;;;;5067306;28;20198;-89
2023/06/11 03:43:47;;;;;;;5.88;5.47;;;;;;;;;;5040274;28;20207;-90
2023/06/11 03:46:17;;;;;;;6.10;5.60;;;;;;;;;;5070095;28;20206;-89
2023/06/11 03:48:44;;;;;;;6.45;5.88;;;;;;;;;;5065224;28;20207;-89
2023/06/11 03:51:12;;;;;;;6.00;5.50;;;;;;;;;;5075861;28;20210;-89
2023/06/11 03:53:39;;;;;;;5.68;5.18;;;;;;;;;;5075961;28;20210;-89
2023/06/11 03:56:06;;;;;;;5.30;4.93;;;;;;;;;;5071144;28;20218;-89
2023/06/11 03:58:34;;;;;;;6.25;5.75;;;;;;;;;;5059669;28;20198;-89
2023/06/11 04:01:01;;;;;;;5.68;5.30;;;;;;;;;;5072310;28;20222;-89
2023/06/11 04:03:30;;;;;;;7.20;5.70;;;;;;;;;;5071624;28;20203;-89
2023/06/11 04:05:58;;;;;;;5.75;5.35;;;;;;;;;;5066348;28;20213;-89
2023/06/11 04:08:25;;;;;;;6.07;5.57;;;;;;;;;;5074586;28;20202;-89
2023/06/11 04:10:52;;;;;;;6.13;5.53;;;;;;;;;;5064042;28;20205;-89
2023/06/11 04:13:20;;;;;;;6.50;5.82;;;;;;;;;;5064739;28;20197;-89
2023/06/11 04:15:47;;;;;;;5.75;5.22;;;;;;;;;;5066619;28;20209;-89
2023/06/11 04:18:15;;;;;;;6.53;5.97;;;;;;;;;;5064070;28;20296;-89
2023/06/11 04:20:44;;;;;;;6.22;5.72;;;;;;;;;;5068665;28;20227;-89
2023/06/11 04:23:11;;;;;;;5.90;5.45;;;;;;;;;;5067762;28;20207;-89
2023/06/11 04:25:39;;;;;;;5.72;5.30;;;;;;;;;;5067158;28;20199;-89
2023/06/11 04:28:08;;;;;;;5.65;5.20;;;;;;;;;;5048651;28;20210;-89
2023/06/11 04:30:36;;;;;;;5.70;5.20;;;;;;;;;;5048109;28;20215;-89
2023/06/11 04:33:04;;;;;;;6.32;5.70;;;;;;;;;;5065499;28;20257;-89
2023/06/11 04:35:33;;;;;;;5.90;5.35;;;;;;;;;;5067839;28;20200;-89
2023/06/11 04:38:02;;;;;;;5.90;5.47;;;;;;;;;;5065744;28;20265;-89
2023/06/11 04:40:30;;;;;;;5.75;5.25;;;;;;;;;;5070041;28;20215;-89
2023/06/11 04:42:58;;;;;;;5.85;5.30;;;;;;;;;;5070640;28;20204;-89
2023/06/11 04:45:30;;;;;;;5.70;5.30;;;;;;;;;;5075283;28;20292;-89
2023/06/11 04:47:58;;;;;;;5.70;5.30;;;;;;;;;;5065795;28;20211;-89
2023/06/11 04:50:25;;;;;;;5.45;5.05;;;;;;;;;;5068160;28;20243;-89
2023/06/11 04:52:52;;;;;;;6.13;5.63;;;;;;;;;;5070362;28;20213;-89
2023/06/11 04:55:24;;;;;;;6.25;5.72;;;;;;;;;;5064680;28;20215;-89
2023/06/11 04:57:54;;;;;;;5.57;5.18;;;;;;;;;;5066813;28;20261;-89
2023/06/11 05:00:21;;;;;;;5.88;5.47;;;;;;;;;;5068633;28;20219;-89
2023/06/11 05:02:49;;;;;;;5.32;4.93;;;;;;;;;;5052539;28;20230;-89
2023/06/11 05:05:17;;;;;;;5.32;4.93;;;;;;;;;;5066691;28;20199;-89
2023/06/11 05:07:44;;;;;;;5.43;5.00;;;;;;;;;;5068225;28;20207;-89
2023/06/11 05:10:13;;;;;;;5.30;4.90;;;;;;;;;;5065682;28;20209;-89
2023/06/11 05:12:41;;;;;;;5.47;5.07;;;;;;;;;;5071235;28;20203;-89
2023/06/11 05:15:09;;;;;;;6.10;5.53;;;;;;;;;;5069467;28;20205;-89
2023/06/11 05:17:37;;;;;;;5.43;4.95;;;;;;;;;;5051665;28;20198;-90
2023/06/11 05:20:05;;;;;;;5.78;5.28;;;;;;;;;;5066866;28;20238;-89
2023/06/11 05:22:32;;;;;;;5.70;5.30;;;;;;;;;;5070838;28;20310;-89
2023/06/11 05:24:59;;;;;;;5.60;5.05;;;;;;;;;;5069943;28;20199;-89
2023/06/11 05:27:29;;;;;;;9.13;5.95;;;;;;;;;;5068150;28;20195;-88
2023/06/11 05:29:58;;;;;;;6.68;6.07;;;;;;;;;;5069400;28;20309;-89
2023/06/11 05:32:25;;;;;;;5.85;5.40;;;;;;;;;;5074347;28;20291;-89
2023/06/11 05:34:52;;;;;;;5.93;5.53;;;;;;;;;;5059981;28;20233;-89
2023/06/11 05:37:20;;;;;;;5.38;4.95;;;;;;;;;;5077218;28;20213;-89
2023/06/11 05:39:47;;;;;;;5.68;5.18;;;;;;;;;;5065318;28;20221;-89
2023/06/11 05:42:15;;;;;;;6.85;6.15;;;;;;;;;;5081400;28;20221;-89
2023/06/11 05:44:42;;;;;;;6.28;5.78;;;;;;;;;;5069789;28;20202;-89
2023/06/11 05:47:11;;;;;;;6.38;5.40;;;;;;;;;;5072519;28;20202;-89
2023/06/11 05:49:38;;;;;;;6.00;5.50;;;;;;;;;;5082324;28;20202;-89
2023/06/11 05:52:06;;;;;;;6.10;5.60;;;;;;;;;;5073280;28;20206;-89
2023/06/11 05:54:33;;;;;;;6.25;5.75;;;;;;;;;;5075648;28;20213;-89
2023/06/11 05:57:01;;;;;;;5.90;5.40;;;;;;;;;;5074062;28;20202;-89
2023/06/11 05:59:28;;;;;;;5.50;5.10;;;;;;;;;;5070984;28;20198;-89
2023/06/11 06:01:56;;;;;;;5.90;5.35;;;;;;;;;;5054985;28;20203;-89
2023/06/11 06:04:24;;;;;;;5.78;5.28;;;;;;;;;;5074168;28;20290;-89
2023/06/11 06:06:52;;;;;;;6.35;5.75;;;;;;;;;;5049729;28;20230;-89
2023/06/11 06:09:19;;;;;;;6.13;5.65;;;;;;;;;;5068832;28;20294;-90
2023/06/11 06:11:47;;;;;;;5.90;5.50;;;;;;;;;;5071586;28;20205;-89
2023/06/11 06:14:14;;;;;;;5.68;5.18;;;;;;;;;;5070189;28;20217;-89
2023/06/11 06:16:42;;;;;;;5.45;5.10;;;;;;;;;;5069184;28;20217;-90
2023/06/11 06:19:09;;;;;;;6.07;5.47;;;;;;;;;;5064451;28;20234;-90
2023/06/11 06:21:38;;;;;;;6.15;5.22;;;;;;;;;;5068926;28;20313;-89
2023/06/11 06:24:06;;;;;;;6.88;5.07;;;;;;;;;;5070155;28;20198;-89
2023/06/11 06:26:33;;;;;;;4.75;4.45;;;;;;;;;;5075265;28;20216;-89
2023/06/11 06:29:02;;;;;;;5.72;5.32;;;;;;;;;;5067890;28;20206;-89
2023/06/11 06:31:32;;;;;;;5.30;4.90;;;;;;;;;;5065769;28;20202;-89
2023/06/11 06:34:00;;;;;;;5.55;5.05;;;;;;;;;;5070300;28;20203;-89
2023/06/11 06:36:27;;;;;;;5.47;4.93;;;;;;;;;;5068584;28;20198;-89
2023/06/11 06:38:56;;;;;;;5.03;4.60;;;;;;;;;;5067447;28;20206;-92
2023/06/11 06:41:23;;;;;;;5.22;4.72;;;;;;;;;;5068598;28;20229;-89
2023/06/11 06:43:51;;;;;;;5.50;5.00;;;;;;;;;;5069935;28;20213;-90
2023/06/11 06:46:18;;;;;;;10.30;5.40;;;;;;;;;;5072533;28;20209;-90
2023/06/11 06:48:46;;;;;;;5.55;5.05;;;;;;;;;;5069639;28;20209;-91
2023/06/11 06:51:13;;;;;;;5.03;4.50;;;;;;;;;;5068944;28;20202;-91
2023/06/11 06:53:41;;;;;;;5.28;4.82;;;;;;;;;;5070794;28;20203;-89
2023/06/11 06:56:09;;;;;;;5.40;5.00;;;;;;;;;;5075041;28;20206;-90
2023/06/11 06:58:38;;;;;;;5.40;5.00;;;;;;;;;;5070492;28;20248;-91
2023/06/11 07:01:05;;;;;;;5.03;4.53;;;;;;;;;;5053095;28;20223;-90
2023/06/11 07:03:33;;;;;;;4.60;4.20;;;;;;;;;;5070280;28;20194;-90
2023/06/11 07:06:01;;;;;;;5.97;5.10;;;;;;;;;;5060140;28;20225;-90
2023/06/11 07:08:28;;;;;;;4.38;4.07;;;;;;;;;;5057241;28;20227;-89
2023/06/11 07:10:57;;;;;;;4.72;4.32;;;;;;;;;;5074205;28;20210;-89
2023/06/11 07:13:27;;;;;;;4.93;4.40;;;;;;;;;;5057011;28;20194;-88
2023/06/11 07:15:54;;;;;;;4.25;4.03;;;;;;;;;;5072811;28;20309;-90
2023/06/11 07:18:22;;;;;;;4.43;4.13;;;;;;;;;;5080432;28;20198;-88
2023/06/11 07:20:49;;;;;;;4.75;4.35;;;;;;;;;;5071613;28;20218;-89
2023/06/11 07:23:17;;;;;;;4.93;4.40;;;;;;;;;;5076751;28;20256;-90
2023/06/11 07:25:45;;;;;;;5.10;4.65;;;;;;;;;;5072893;28;20210;-89
2023/06/11 07:28:12;;;;;;;4.47;4.15;;;;;;;;;;5073976;28;20285;-90
2023/06/11 07:30:41;;;;;;;6.07;4.22;;;;;;;;;;5071619;28;20258;-89
2023/06/11 07:33:08;;;;;;;4.63;4.22;;;;;;;;;;5084634;28;20232;-90
2023/06/11 07:35:36;;;;;;;4.63;4.22;;;;;;;;;;5076093;28;20195;-90
2023/06/11 07:38:03;;;;;;;4.57;4.10;;;;;;;;;;5046434;28;20210;-89
2023/06/11 07:40:31;;;;;;;4.28;3.97;;;;;;;;;;5069111;28;20234;-89
2023/06/11 07:42:58;;;;;;;4.90;4.00;;;;;;;;;;5073505;28;20221;-88
2023/06/11 07:45:27;;;;;;;4.70;4.30;;;;;;;;;;5055536;28;20207;-88
2023/06/11 07:47:56;;;;;;;4.72;4.32;;;;;;;;;;5070904;28;20278;-90
2023/06/11 07:50:23;;;;;;;4.32;3.95;;;;;;;;;;5063080;28;20210;-88
2023/06/11 07:52:50;;;;;;;4.45;4.15;;;;;;;;;;5065274;28;20215;-92
2023/06/11 07:55:18;;;;;;;4.15;3.85;;;;;;;;;;5067504;28;20203;-94
2023/06/11 07:57:46;;;;;;;4.70;4.30;;;;;;;;;;5051237;28;20198;-93
2023/06/11 08:00:16;;;;;;;4.45;4.05;;;;;;;;;;5046573;28;20199;-93
2023/06/11 08:02:44;;;;;;;3.90;3.60;;;;;;;;;;5072118;28;20199;-94
2023/06/11 08:05:17;;;;;;;4.30;4.00;;;;;;;;;;5071030;28;20199;-93
2023/06/11 08:07:45;;;;;;;3.97;3.75;;;;;;;;;;5064876;28;20210;-93
2023/06/11 08:10:12;;;;;;;4.05;3.78;;;;;;;;;;5065591;28;20199;-92
2023/06/11 08:12:39;;;;;;;4.10;3.80;;;;;;;;;;5066825;28;20198;-92
2023/06/11 08:15:08;;;;;;;3.90;3.60;;;;;;;;;;5057710;28;20203;-93
2023/06/11 08:17:36;;;;;;;4.10;3.42;;;;;;;;;;5071464;28;20199;-93
2023/06/11 08:20:06;;;;;;;3.67;3.40;;;;;;;;;;5071151;28;20239;-92
2023/06/11 08:22:35;;;;;;;3.72;3.42;;;;;;;;;;5059885;28;20219;-93
2023/06/11 08:25:02;;;;;;;4.10;3.35;;;;;;;;;;5072065;28;20241;-94
2023/06/11 08:27:29;;;;;;;4.20;3.90;;;;;;;;;;5072080;28;20198;-92
2023/06/11 08:29:57;;;;;;;3.90;3.60;;;;;;;;;;5071719;28;20222;-91
2023/06/11 08:32:24;;;;;;;4.32;3.20;;;;;;;;;;5072892;28;20213;-91
2023/06/11 08:34:52;;;;;;;3.60;3.30;;;;;;;;;;5071937;28;20227;-92
2023/06/11 08:37:19;;;;;;;3.75;3.40;;;;;;;;;;5073366;28;20203;-90
2023/06/11 08:39:48;;;;;;;3.65;3.33;;;;;;;;;;5074602;28;20203;-91
2023/06/11 08:42:16;;;;;;;3.40;3.20;;;;;;;;;;5074828;28;20229;-92
2023/06/11 08:44:43;;;;;;;3.30;3.10;;;;;;;;;;5072417;28;20267;-92
2023/06/11 08:47:10;;;;;;;3.22;3.03;;;;;;;;;;5053861;28;20205;-92
2023/06/11 08:49:40;;;;;;;3.30;3.00;;;;;;;;;;5073074;28;20207;-91
2023/06/11 08:52:08;;;;;;;3.35;3.15;;;;;;;;;;5068828;28;20195;-91
2023/06/11 08:54:35;;;;;;;3.95;3.58;;;;;;;;;;5073124;28;20251;-91
2023/06/11 08:57:07;;;;;;;3.35;3.15;;;;;;;;;;5073614;28;20202;-92
2023/06/11 08:59:34;;;;;;;3.30;3.00;;;;;;;;;;5057488;28;20234;-92
2023/06/11 09:02:01;;;;;;;3.22;3.03;;;;;;;;;;5073107;28;20223;-89
2023/06/11 09:04:29;;;;;;;3.30;3.10;;;;;;;;;;5075055;28;20238;-96
2023/06/11 09:06:58;;;;;;;4.00;3.60;;;;;;;;;;5064056;28;20203;-93
2023/06/11 09:09:26;;;;;;;3.63;3.33;;;;;;;;;;5076111;28;20199;-92
2023/06/11 09:11:53;;;;;;;3.85;3.55;;;;;;;;;;5070744;28;20222;-93
2023/06/11 09:14:22;;;;;;;5.32;3.63;;;;;;;;;;5067373;28;20206;-92
2023/06/11 09:16:49;;;;;;;3.75;3.45;;;;;;;;;;5070641;28;20230;-91
2023/06/11 09:19:17;;;;;;;4.03;3.60;;;;;;;;;;5063125;28;20241;-92
2023/06/11 09:21:51;;;;;;;3.58;3.28;;;;;;;;;;5075670;28;20206;-91
2023/06/11 09:24:19;;;;;;;3.22;3.00;;;;;;;;;;5069510;28;20199;-93
2023/06/11 09:26:53;;;;;;;3.75;3.45;;;;;;;;;;5067064;28;20195;-93
2023/06/11 09:29:22;;;;;;;4.07;3.78;;;;;;;;;;5071217;28;20252;-94
2023/06/11 09:31:49;;;;;;;3.60;3.40;;;;;;;;;;5069612;28;20261;-96
2023/06/11 09:34:22;;;;;;;3.20;3.00;;;;;;;;;;5071419;28;20199;-93
2023/06/11 09:36:51;;;;;;;3.03;2.83;;;;;;;;;;5057056;28;20207;-95
2023/06/11 09:39:19;;;;;;;3.25;3.05;;;;;;;;;;5064873;28;20210;-95
2023/06/11 09:41:50;;;;;;;3.90;3.50;;;;;;;;;;5066491;28;20281;-95
2023/06/11 09:44:19;;;;;;;3.55;3.35;;;;;;;;;;5072975;28;20234;-95
2023/06/11 09:46:48;;;;;;;3.60;3.33;;;;;;;;;;5059371;28;20263;-94
2023/06/11 09:49:16;;;;;;;5.53;3.17;;;;;;;;;;5072140;28;20203;-92
2023/06/11 09:51:47;;;;;;;3.28;3.08;;;;;;;;;;5072072;28;20217;-95
2023/06/11 09:54:16;;;;;;;3.10;2.90;;;;;;;;;;5074235;28;20202;-94
2023/06/11 09:56:45;;;;;;;3.42;3.13;;;;;;;;;;5073133;28;20202;-95
2023/06/11 09:59:13;;;;;;;3.15;2.95;;;;;;;;;;5071293;28;20363;-93
2023/06/11 10:01:51;;;;;;;3.20;3.00;;;;;;;;;;5066080;28;20224;-95
2023/06/11 10:04:20;;;;;;;3.30;3.05;;;;;;;;;;5074211;28;20207;-95
2023/06/11 10:06:50;;;;;;;3.60;3.30;;;;;;;;;;5067126;28;20225;-94
2023/06/11 10:09:18;;;;;;;3.72;3.13;;;;;;;;;;5070330;28;20207;-94
2023/06/11 10:11:47;;;;;;;3.00;2.80;;;;;;;;;;5073834;28;20203;-95
2023/06/11 10:14:17;;;;;;;3.25;2.60;;;;;;;;;;5072981;28;20336;-93
2023/06/11 10:16:50;;;;;;;3.13;2.72;;;;;;;;;;5074709;28;20191;-94
2023/06/11 10:19:23;;;;;;;3.13;2.85;;;;;;;;;;5064033;28;20251;-94
2023/06/11 10:21:52;;;;;;;2.90;2.70;;;;;;;;;;5068145;28;20214;-95
2023/06/11 10:24:23;;;;;;;3.40;2.92;;;;;;;;;;5067754;28;20199;-94
2023/06/11 10:27:07;;;;;;;3.75;2.80;;;;;;;;;;5047890;28;20275;-94
2023/06/11 10:29:41;;;;;;;4.22;3.00;;;;;;;;;;5070531;28;20198;-92
2023/06/11 10:32:16;;;;;;;3.20;3.00;;;;;;;;;;5059751;28;20294;-93
2023/06/11 10:34:46;;;;;;;3.40;2.90;;;;;;;;;;5045052;28;20213;-93
2023/06/11 10:37:17;;;;;;;3.40;3.10;;;;;;;;;;5064264;28;20206;-91
2023/06/11 10:39:51;;;;;;;2.75;2.55;;;;;;;;;;5064536;28;20198;-92
2023/06/11 10:42:27;;;;;;;2.95;2.75;;;;;;;;;;5065010;28;20254;-92
2023/06/11 10:44:58;;;;;;;3.17;2.67;;;;;;;;;;5062598;28;20198;-93
2023/06/11 10:47:26;;;;;;;4.85;2.83;;;;;;;;;;5066028;28;20195;-92
2023/06/11 10:50:05;;;;;;;2.72;2.53;;;;;;;;;;5044429;28;20226;-91
2023/06/11 10:52:33;;;;;;;3.70;3.40;;;;;;;;;;5061574;28;20201;-93
2023/06/11 10:55:01;;;;;;;3.10;2.90;;;;;;;;;;5067984;28;20207;-91
2023/06/11 10:57:30;;;;;;;3.15;2.90;;;;;;;;;;5058036;28;20198;-91
2023/06/11 10:59:58;;;;;;;2.97;2.78;;;;;;;;;;5060745;28;20206;-94
2023/06/11 11:02:27;;;;;;;3.10;2.85;;;;;;;;;;5061951;28;20219;-94
2023/06/11 11:04:56;;;;;;;3.67;3.08;;;;;;;;;;5065114;28;20207;-94
2023/06/11 11:07:34;;;;;;;2.70;2.55;;;;;;;;;;5071041;28;20203;-92
2023/06/11 11:10:01;;;;;;;3.33;3.13;;;;;;;;;;5051578;28;20198;-91
2023/06/11 11:12:36;;;;;;;2.85;2.75;;;;;;;;;;5071561;28;20230;-91
2023/06/11 11:15:04;;;;;;;3.63;3.00;;;;;;;;;;5066453;28;20252;-92
2023/06/11 11:17:31;;;;;;;3.15;2.63;;;;;;;;;;5065897;28;20195;-92
2023/06/11 11:20:00;;;;;;;3.10;2.90;;;;;;;;;;5065740;28;20230;-95
2023/06/11 11:22:30;;;;;;;3.25;3.05;;;;;;;;;;5067060;28;20226;-95
2023/06/11 11:25:00;;;;;;;3.25;3.00;;;;;;;;;;5068229;28;20214;-95
2023/06/11 11:27:28;;;;;;;2.90;2.70;;;;;;;;;;5064746;28;20194;-92
2023/06/11 11:29:57;;;;;;;3.40;3.10;;;;;;;;;;5051460;28;20203;-92
2023/06/11 11:32:25;;;;;;;3.20;3.00;;;;;;;;;;5067930;28;20203;-93
2023/06/11 11:34:53;;;;;;;3.75;3.55;;;;;;;;;;5066012;28;20293;-92
2023/06/11 11:37:23;;;;;;;3.65;3.13;;;;;;;;;;5055973;28;20217;-93
2023/06/11 11:39:50;;;;;;;3.50;3.20;;;;;;;;;;5073907;28;20217;-91
2023/06/11 11:42:18;;;;;;;3.67;3.38;;;;;;;;;;5067051;28;20230;-93
2023/06/11 11:44:45;;;;;;;5.53;3.15;;;;;;;;;;5061953;28;20198;-92
2023/06/11 11:47:13;;;;;;;4.28;3.20;;;;;;;;;;5062454;28;20195;-92
2023/06/11 11:49:41;;;;;;;3.50;3.20;;;;;;;;;;5061135;28;20267;-92
2023/06/11 11:52:12;;;;;;;3.50;3.20;;;;;;;;;;5069731;28;20208;-92
2023/06/11 11:54:44;;;;;;;3.63;3.30;;;;;;;;;;5067187;28;20215;-92
2023/06/11 11:57:12;;;;;;;4.40;3.75;;;;;;;;;;5070224;28;20282;-92
2023/06/11 11:59:40;;;;;;;3.35;3.05;;;;;;;;;;5064157;28;20235;-92
2023/06/11 12:02:09;;;;;;;4.07;2.95;;;;;;;;;;5073166;28;20237;-93
2023/06/11 12:04:37;;;;;;;4.43;3.20;;;;;;;;;;5056899;28;20203;-92
2023/06/11 12:07:06;;;;;;;4.18;3.25;;;;;;;;;;5060846;28;20203;-93
2023/06/11 12:09:33;;;;;;;3.35;3.15;;;;;;;;;;5064646;28;20198;-91
2023/06/11 12:12:03;;;;;;;3.70;3.40;;;;;;;;;;5064737;28;20211;-91
2023/06/11 12:14:30;;;;;;;4.20;3.38;;;;;;;;;;5047481;28;20207;-92
2023/06/11 12:16:58;;;;;;;3.53;3.20;;;;;;;;;;5062008;28;20205;-92
2023/06/11 12:19:28;;;;;;;5.60;3.40;;;;;;;;;;5055752;28;20227;-93
2023/06/11 12:21:56;;;;;;;3.58;2.97;;;;;;;;;;5063556;28;20223;-93
2023/06/11 12:24:24;;;;;;;3.58;3.28;;;;;;;;;;5063295;28;20277;-92
2023/06/11 12:26:52;;;;;;;3.45;3.22;;;;;;;;;;5071846;28;20206;-93
2023/06/11 12:29:21;;;;;;;3.72;3.33;;;;;;;;;;5062485;28;20203;-93
2023/06/11 12:31:49;;;;;;;3.60;3.30;;;;;;;;;;5045677;28;20198;-93
2023/06/11 12:34:18;;;;;;;5.32;3.28;;;;;;;;;;5065894;28;20207;-95
2023/06/11 12:36:46;;;;;;;3.75;3.30;;;;;;;;;;5066937;28;20211;-96
2023/06/11 12:39:14;;;;;;;3.40;3.10;;;;;;;;;;5066916;28;20191;-95
2023/06/11 12:41:42;;;;;;;4.40;3.80;;;;;;;;;;5060947;28;20211;-96
2023/06/11 12:44:09;;;;;;;3.05;2.85;;;;;;;;;;5070016;28;20281;-95
2023/06/11 12:46:38;;;;;;;4.80;3.08;;;;;;;;;;5063608;28;20207;-94
2023/06/11 12:49:05;;;;;;;3.38;3.10;;;;;;;;;;5062565;28;20266;-95
2023/06/11 12:51:33;;;;;;;2.75;2.55;;;;;;;;;;5060884;28;20222;-95
2023/06/11 12:54:00;;;;;;;3.80;2.92;;;;;;;;;;5041440;28;20216;-94
2023/06/11 12:56:28;;;;;;;2.90;2.70;;;;;;;;;;5068704;28;20199;-95
2023/06/11 12:58:55;;;;;;;4.28;2.78;;;;;;;;;;5058926;28;20214;-94
2023/06/11 13:01:22;;;;;;;3.08;2.70;;;;;;;;;;5060167;28;20294;-94
2023/06/11 13:03:51;;;;;;;3.40;3.10;;;;;;;;;;5063071;28;20242;-95
2023/06/11 13:06:19;;;;;;;5.03;2.90;;;;;;;;;;5067359;28;20198;-95
2023/06/11 13:08:46;;;;;;;2.90;2.70;;;;;;;;;;5071026;28;20202;-96
2023/06/11 13:11:14;;;;;;;3.13;2.92;;;;;;;;;;5070084;28;20219;-94
2023/06/11 13:13:41;;;;;;;5.07;3.22;;;;;;;;;;5076210;28;20210;-94
2023/06/11 13:16:09;;;;;;;2.92;2.60;;;;;;;;;;5082252;28;20197;-95
2023/06/11 13:18:36;;;;;;;3.40;3.10;;;;;;;;;;5070384;28;20238;-95
2023/06/11 13:21:05;;;;;;;3.53;3.22;;;;;;;;;;5073618;28;20209;-95
2023/06/11 13:23:33;;;;;;;3.15;2.85;;;;;;;;;;5067807;28;20229;-96
2023/06/11 13:26:01;;;;;;;16.05;14.10;;;;;;;;;;5078523;28;20201;-95
2023/06/11 13:28:28;;;;;;;4.07;3.67;;;;;;;;;;5066155;28;20213;-94
2023/06/11 13:30:56;;;;;;;4.38;3.20;;;;;;;;;;5071509;28;20212;-93
2023/06/11 13:33:24;;;;;;;3.40;3.10;;;;;;;;;;5050159;28;20198;-95
2023/06/11 13:35:51;;;;;;;3.42;2.80;;;;;;;;;;5062360;28;20206;-96
2023/06/11 13:38:20;;;;;;;3.42;3.13;;;;;;;;;;5060774;28;20206;-96
2023/06/11 13:40:47;;;;;;;6.68;3.85;;;;;;;;;;5068688;28;20198;-94
2023/06/11 13:43:15;;;;;;;3.78;3.25;;;;;;;;;;5071009;28;20380;-93
2023/06/11 13:45:43;;;;;;;3.40;2.90;;;;;;;;;;5066948;28;20278;-94
2023/06/11 13:48:14;;;;;;;3.60;3.15;;;;;;;;;;5071228;28;20215;-94
2023/06/11 13:50:42;;;;;;;4.38;3.42;;;;;;;;;;5076635;28;20271;-94
2023/06/11 13:53:10;;;;;;;3.30;3.10;;;;;;;;;;5057267;28;20202;-94
2023/06/11 13:55:39;;;;;;;3.63;3.33;;;;;;;;;;5069050;28;20211;-95
2023/06/11 13:58:06;;;;;;;3.50;3.20;;;;;;;;;;5069225;28;20245;-94
2023/06/11 14:00:34;;;;;;;4.05;3.10;;;;;;;;;;5075900;28;20209;-94
2023/06/11 14:03:02;;;;;;;3.30;3.08;;;;;;;;;;5063895;28;20230;-95
2023/06/11 14:05:30;;;;;;;5.43;3.83;;;;;;;;;;5072970;28;20286;-94
2023/06/11 14:07:58;;;;;;;3.60;3.30;;;;;;;;;;5067856;28;20206;-94
2023/06/11 14:10:25;;;;;;;4.47;3.50;;;;;;;;;;5069640;28;20194;-95
2023/06/11 14:12:54;;;;;;;4.25;3.55;;;;;;;;;;5072637;28;20213;-95
2023/06/11 14:15:21;;;;;;;3.70;3.33;;;;;;;;;;5072000;28;20210;-95
2023/06/11 14:17:49;;;;;;;3.45;3.15;;;;;;;;;;5061969;28;20195;-95
2023/06/11 14:20:18;;;;;;;4.05;3.50;;;;;;;;;;5064735;28;20254;-94
2023/06/11 14:22:46;;;;;;;3.28;3.08;;;;;;;;;;5057592;28;20225;-94
2023/06/11 14:25:13;;;;;;;4.25;3.95;;;;;;;;;;5076661;28;20200;-95
2023/06/11 14:27:40;;;;;;;3.83;3.53;;;;;;;;;;5054096;28;20202;-96
2023/06/11 14:30:10;;;;;;;3.97;3.45;;;;;;;;;;5062865;28;20202;-96
2023/06/11 14:32:38;;;;;;;3.78;3.47;;;;;;;;;;5073478;28;20293;-93
2023/06/11 14:35:06;;;;;;;3.85;3.30;;;;;;;;;;5051540;28;20203;-94
2023/06/11 14:37:33;;;;;;;4.00;3.47;;;;;;;;;;5078700;28;20191;-95
2023/06/11 14:40:00;;;;;;;5.45;3.70;;;;;;;;;;5064143;28;20194;-95
2023/06/11 14:42:28;;;;;;;3.83;3.53;;;;;;;;;;5070876;28;20210;-96
2023/06/11 14:44:55;;;;;;;3.28;3.05;;;;;;;;;;5064914;28;20213;-95
2023/06/11 14:47:25;;;;;;;3.70;3.40;;;;;;;;;;5073563;28;20210;-95
2023/06/11 14:49:52;;;;;;;4.25;3.30;;;;;;;;;;5057971;28;20207;-95